Time;durP1;ratioP1;P1;durP2;ratioP2;P2;SDS_P1;SDS_P2;PMS_P1;PMS_P2;Temp;Humidity;BMP_temperature;BMP_pressure;BME280_temperature;BME280_humidity;BME280_pressure;Samples;Min_cycle;Max_cycle;Signal;HPM_P1;HPM_P2
2022/12/10 14:10:14;;;;;;;30.90;9.90;;;;;;;16.25;66.97;99900.72;4850277;29;1672614;-85
2022/12/10 14:12:50;;;;;;;26.13;10.88;;;;;;;16.15;67.55;99894.91;4908321;28;20044;-90
2022/12/10 14:18:22;;;;;;;23.90;9.35;;;;;;;16.04;68.17;99909.16;5104642;28;20055;-90
2022/12/10 14:21:08;;;;;;;27.80;11.25;;;;;;;15.83;68.00;99880.47;5098828;28;20045;-84
2022/12/10 14:23:40;;;;;;;29.05;11.82;;;;;;;15.74;68.41;99871.72;5089224;28;20055;-83
2022/12/10 14:26:12;;;;;;;28.90;10.30;;;;;;;15.66;68.77;99858.38;5075866;28;20104;-87
2022/12/10 14:28:42;;;;;;;26.02;10.98;;;;;;;15.58;69.07;99854.03;5073774;28;20025;-87
2022/12/10 14:31:21;;;;;;;31.33;11.38;;;;;;;15.73;69.27;99899.91;5084707;28;20038;-84
2022/12/10 14:33:48;;;;;;;31.58;11.18;;;;;;;15.61;70.28;99894.25;5086971;28;20140;-86
2022/12/10 14:36:24;;;;;;;31.17;11.45;;;;;;;15.48;70.33;99886.16;5090812;28;20100;-84
2022/12/10 14:42:04;;;;;;;29.02;11.80;;;;;;;15.49;70.72;99895.13;5111968;28;20034;-84
2022/12/10 14:44:30;;;;;;;30.95;11.13;;;;;;;15.43;71.00;99893.25;5078632;28;20039;-84
2022/12/10 14:47:19;;;;;;;28.48;11.55;;;;;;;15.44;70.83;99898.47;5096640;28;20115;-85
2022/12/10 14:49:49;;;;;;;29.65;13.80;;;;;;;15.40;71.39;99894.50;5078721;28;20121;-85
2022/12/10 14:52:17;;;;;;;34.83;13.75;;;;;;;15.32;71.54;99890.16;5083188;28;20422;-85
2022/12/10 14:54:43;;;;;;;37.00;13.40;;;;;;;15.26;71.58;99877.44;5096492;28;20036;-83
2022/12/10 14:57:37;;;;;;;39.83;15.63;;;;;;;15.25;71.82;99872.25;5053300;28;20030;-91
2022/12/10 15:00:08;;;;;;;36.53;14.40;;;;;;;15.25;71.62;99874.97;5085748;28;20032;-84
2022/12/10 15:02:46;;;;;;;46.30;14.88;;;;;;;15.30;71.71;99877.88;5098826;28;20039;-84
2022/12/10 15:05:17;;;;;;;36.05;14.48;;;;;;;15.35;71.63;99876.19;5073287;28;20139;-85
2022/12/10 15:07:43;;;;;;;42.30;13.95;;;;;;;15.18;71.76;99873.09;5071061;28;20043;-85
2022/12/10 15:10:17;;;;;;;;;;;;;;;15.22;72.02;99902.44;5085346;28;20128;-86
2022/12/10 15:12:47;;;;;;;36.67;13.95;;;;;;;15.08;72.27;99880.81;5083277;28;19982;-87
2022/12/10 15:15:32;;;;;;;36.13;13.48;;;;;;;15.16;72.37;99896.00;5066244;28;20033;-87
2022/12/10 15:18:12;;;;;;;35.60;13.88;;;;;;;14.89;72.66;99855.41;5071093;28;20123;-85
2022/12/10 15:20:51;;;;;;;36.55;14.35;;;;;;;15.08;72.99;99888.09;5062285;28;20048;-84
2022/12/10 15:23:28;;;;;;;30.90;15.15;;;;;;;14.98;73.15;99877.66;5070846;28;20036;-86
2022/12/10 15:26:08;;;;;;;34.33;15.85;;;;;;;14.99;73.32;99885.59;5077164;28;20028;-85
2022/12/10 15:28:35;;;;;;;49.92;16.55;;;;;;;14.97;73.56;99887.66;5075339;28;20032;-85
2022/12/10 15:31:27;;;;;;;34.03;15.82;;;;;;;14.93;73.24;99875.59;5072201;28;20143;-86
2022/12/10 15:33:54;;;;;;;42.13;16.90;;;;;;;14.85;73.55;99870.41;5072520;28;20042;-82
2022/12/10 15:36:19;;;;;;;43.05;16.15;;;;;;;14.96;73.49;99896.00;5059219;28;20040;-84
2022/12/10 15:38:47;;;;;;;48.88;17.65;;;;;;;14.72;74.47;99892.03;5069576;28;20401;-85
2022/12/10 15:41:22;;;;;;;46.15;17.20;;;;;;;14.85;73.87;99896.63;5069621;28;20378;-83
2022/12/10 15:43:55;;;;;;;38.28;16.55;;;;;;;14.79;74.12;99887.47;5062728;28;20036;-86
2022/12/10 15:46:24;;;;;;;49.70;17.00;;;;;;;14.84;73.83;99882.25;5069004;28;20032;-83
2022/12/10 15:49:10;;;;;;;34.92;15.77;;;;;;;14.82;73.67;99862.72;5060898;28;20113;-87
2022/12/10 15:51:38;;;;;;;42.47;15.30;;;;;;;14.87;74.02;99864.78;5067474;28;20170;-88
2022/12/10 15:54:38;;;;;;;45.88;16.25;;;;;;;14.78;74.20;99866.88;5081026;28;20098;-89
2022/12/10 15:57:21;;;;;;;44.20;18.38;;;;;;;14.70;74.08;99856.22;5084464;28;20100;-88
2022/12/10 15:59:49;;;;;;;40.75;15.85;;;;;;;14.69;74.84;99868.09;5074519;28;20400;-86
2022/12/10 16:02:55;;;;;;;43.33;16.52;;;;;;;14.66;75.25;99877.47;5070601;28;20105;-84
2022/12/10 16:05:31;;;;;;;39.50;15.85;;;;;;;14.63;75.30;99863.50;5081792;28;20032;-87
2022/12/10 16:11:40;;;;;;;32.47;14.48;;;;;;;14.71;75.43;99879.56;5085950;28;20067;-88
2022/12/10 16:14:48;;;;;;;38.67;17.15;;;;;;;14.67;75.65;99875.59;5076731;28;20033;-86
2022/12/10 16:31:08;;;;;;;54.85;22.58;;;;;;;14.28;76.44;99878.00;5087760;28;20150;-84
2022/12/10 16:33:38;;;;;;;60.20;25.50;;;;;;;14.42;76.51;99870.75;5041480;28;20047;-88
2022/12/10 16:36:42;;;;;;;69.43;30.05;;;;;;;14.38;76.45;99860.56;5063432;28;20041;-86
2022/12/10 16:39:17;;;;;;;66.85;31.48;;;;;;;14.18;76.67;99833.47;5073677;28;20127;-84
2022/12/10 16:41:44;;;;;;;72.75;32.95;;;;;;;14.33;76.47;99848.47;5039565;28;20119;-84
2022/12/10 16:44:13;;;;;;;50.72;22.95;;;;;;;14.25;77.21;99827.03;5041473;28;20138;-87
2022/12/10 16:47:00;;;;;;;51.20;21.00;;;;;;;14.40;77.16;99859.31;5100473;28;20060;-90
2022/12/10 16:49:55;;;;;;;78.03;32.80;;;;;;;14.35;76.93;99859.06;5115634;28;20081;-90
2022/12/10 16:52:37;;;;;;;72.00;29.95;;;;;;;14.40;76.41;99859.31;5087467;28;20032;-88
2022/12/10 16:55:28;;;;;;;55.58;25.05;;;;;;;14.52;76.46;99852.25;5080122;28;20053;-85
2022/12/10 16:58:01;;;;;;;44.50;20.73;;;;;;;14.42;77.12;99829.34;5119803;28;20047;-88
2022/12/10 17:01:13;;;;;;;51.53;23.33;;;;;;;14.66;76.04;99836.88;5101950;28;20071;-88
2022/12/10 17:03:50;;;;;;;40.08;17.40;;;;;;;14.56;76.91;99831.91;5106390;28;20067;-87
2022/12/10 17:06:36;;;;;;;53.35;21.38;;;;;;;14.50;77.16;99838.09;5091851;28;20033;-89
2022/12/10 17:09:17;;;;;;;64.20;27.58;;;;;;;14.48;76.24;99826.66;5077604;28;20059;-87
2022/12/10 17:46:01;;;;;;;35.70;14.18;;;;;;;14.64;76.89;99798.38;5269536;22;20057;-90
2022/12/10 18:06:39;;;;;;;47.65;17.50;;;;;;;14.67;76.65;99791.72;5716681;22;20080;-90
2022/12/10 18:13:03;;;;;;;29.73;9.10;;;;;;;14.71;77.24;99806.50;5620591;22;20047;-87
2022/12/10 18:15:30;;;;;;;21.92;7.45;;;;;;;14.70;77.13;99791.31;5046847;28;20076;-88
2022/12/10 18:18:05;;;;;;;30.38;7.88;;;;;;;14.72;76.82;99783.81;5019574;28;20067;-89
2022/12/10 18:20:37;;;;;;;40.03;13.85;;;;;;;14.77;76.45;99794.84;5011192;28;20121;-88
2022/12/10 18:23:15;;;;;;;36.35;13.45;;;;;;;14.59;76.91;99789.25;5033755;28;20172;-88
2022/12/10 18:25:56;;;;;;;37.22;13.05;;;;;;;14.52;77.84;99794.63;5015930;28;20045;-91
2022/12/10 18:28:27;;;;;;;25.95;10.98;;;;;;;14.57;78.39;99794.84;5047292;28;20037;-88
2022/12/10 18:31:14;;;;;;;27.27;10.40;;;;;;;14.49;77.71;99778.78;5051532;28;20068;-90
2022/12/10 18:36:47;;;;;;;29.13;10.63;;;;;;;14.51;78.05;99790.22;5385917;22;20079;-89
2022/12/10 18:43:14;;;;;;;26.52;9.30;;;;;;;14.42;78.34;99786.94;5622063;22;20057;-93
2022/12/10 18:45:40;;;;;;;29.17;10.18;;;;;;;14.40;77.99;99770.06;5062134;28;20128;-89
2022/12/10 18:48:06;;;;;;;24.10;8.18;;;;;;;14.26;78.58;99761.13;5048788;28;20037;-87
2022/12/10 18:50:34;;;;;;;24.55;8.80;;;;;;;14.29;78.62;99738.25;5068122;28;20041;-89
2022/12/10 18:53:18;;;;;;;28.85;8.90;;;;;;;14.50;78.69;99775.06;5048009;28;20049;-86
2022/12/10 18:55:45;;;;;;;24.75;8.50;;;;;;;14.38;78.88;99774.84;5055405;28;20061;-88
2022/12/10 18:58:18;;;;;;;30.00;8.40;;;;;;;14.52;79.14;99768.41;5058430;28;20076;-88
2022/12/10 19:01:07;;;;;;;28.08;9.82;;;;;;;14.49;78.60;99754.44;5043443;28;20048;-88
2022/12/10 19:03:58;;;;;;;28.13;8.70;;;;;;;14.44;79.14;99741.53;5257508;22;20024;-92
2022/12/10 19:06:30;;;;;;;21.00;7.88;;;;;;;14.44;78.51;99724.50;5856704;22;20114;-86
2022/12/10 19:09:09;;;;;;;25.17;7.78;;;;;;;14.57;78.34;99721.81;5228177;22;20053;-93
2022/12/10 19:12:17;;;;;;;25.38;8.95;;;;;;;14.79;77.89;99754.88;5043419;28;20045;-90
2022/12/10 19:20:00;;;;;;;28.23;8.88;;;;;;;14.69;77.52;99730.13;1593961;22;20052;-90
2022/12/10 19:53:52;;;;;;;29.58;7.28;;;;;;;15.23;75.34;99720.81;5223919;22;20054;-89
2022/12/10 19:56:27;;;;;;;26.25;7.00;;;;;;;15.32;75.20;99727.66;5066229;28;20052;-90
2022/12/10 20:06:51;;;;;;;25.25;7.82;;;;;;;15.35;73.89;99710.16;5237588;22;20060;-87
2022/12/10 20:09:20;;;;;;;;;;;;;;;15.54;73.66;99735.47;5052516;28;20100;-88
2022/12/10 20:11:46;;;;;;;21.65;7.40;;;;;;;15.49;73.78;99724.47;5083156;28;19905;-88
2022/12/10 20:14:40;;;;;;;21.73;7.25;;;;;;;15.47;73.23;99723.84;5047420;28;20033;-89
2022/12/10 20:17:13;;;;;;;16.95;5.95;;;;;;;15.56;72.99;99736.09;5084550;28;20111;-91
2022/12/10 20:19:40;;;;;;;17.23;6.25;;;;;;;15.51;72.98;99736.75;5073088;28;20056;-88
2022/12/10 20:22:41;;;;;;;15.80;5.85;;;;;;;15.48;72.84;99714.69;5041668;28;20045;-87
2022/12/10 20:25:16;;;;;;;21.55;5.90;;;;;;;15.55;72.48;99710.06;5075666;28;20048;-89
2022/12/10 20:27:43;;;;;;;18.55;6.03;;;;;;;15.70;72.28;99718.75;5074611;28;20074;-92
2022/12/10 20:30:52;;;;;;;16.58;6.40;;;;;;;15.61;72.41;99714.59;5176693;23;20128;-89
2022/12/10 20:33:20;;;;;;;20.77;7.15;;;;;;;15.54;72.20;99686.72;5017318;28;20041;-89
2022/12/10 20:35:51;;;;;;;17.63;6.35;;;;;;;15.46;71.92;99678.84;5062703;28;20100;-89
2022/12/10 20:38:20;;;;;;;22.70;6.85;;;;;;;15.57;71.72;99675.47;5044998;28;20033;-87
2022/12/10 20:41:18;;;;;;;23.60;6.30;;;;;;;15.58;71.76;99682.53;5036811;28;20073;-89
2022/12/10 20:43:59;;;;;;;16.83;4.97;;;;;;;15.61;71.55;99692.94;5049269;28;20072;-90
2022/12/10 20:46:29;;;;;;;16.33;5.15;;;;;;;15.62;70.93;99670.22;5047045;28;20041;-88
2022/12/10 20:48:58;;;;;;;15.02;5.20;;;;;;;15.76;70.91;99684.56;5019733;28;20034;-87
2022/12/10 20:51:28;;;;;;;20.45;5.70;;;;;;;15.63;70.82;99658.31;5029002;28;20041;-87
2022/12/10 20:53:55;;;;;;;16.42;5.13;;;;;;;15.81;70.69;99682.84;5020672;28;20044;-87
2022/12/10 20:56:23;;;;;;;24.23;5.70;;;;;;;15.75;70.68;99680.97;5002285;28;20495;-89
2022/12/10 20:58:52;;;;;;;21.00;5.85;;;;;;;15.81;70.59;99688.25;5036146;28;20091;-86
2022/12/10 21:01:40;;;;;;;15.85;5.70;;;;;;;15.97;70.37;99675.22;5036738;28;20045;-91
2022/12/10 21:04:11;;;;;;;18.60;5.85;;;;;;;15.77;70.16;99645.56;5051444;28;20052;-90
2022/12/10 21:07:18;;;;;;;15.63;5.32;;;;;;;15.94;70.25;99697.34;5036222;28;20042;-89
2022/12/10 21:09:50;;;;;;;22.48;5.90;;;;;;;15.87;70.22;99680.28;5051066;28;20097;-88
2022/12/10 21:12:42;;;;;;;13.93;4.60;;;;;;;15.64;69.98;99676.25;5049004;28;20067;-88
2022/12/10 21:15:28;;;;;;;18.88;4.97;;;;;;;15.77;70.01;99676.19;5038797;28;20148;-89
2022/12/10 21:20:32;;;;;;;18.60;4.45;;;;;;;15.82;69.83;99668.22;5499103;22;20048;-90
2022/12/10 21:23:06;;;;;;;19.58;4.57;;;;;;;15.68;69.74;99639.53;5092050;28;20048;-89
2022/12/10 21:26:14;;;;;;;16.65;4.28;;;;;;;15.85;69.67;99661.56;5074007;28;20032;-88
2022/12/10 21:29:24;;;;;;;17.55;4.80;;;;;;;15.86;69.67;99662.38;5269276;22;20067;-91
2022/12/10 21:32:22;;;;;;;18.70;4.70;;;;;;;15.76;70.06;99660.16;5059165;28;20039;-91
2022/12/10 21:35:08;;;;;;;18.08;4.22;;;;;;;15.79;70.07;99636.16;5086734;28;20120;-90
2022/12/10 21:37:36;;;;;;;16.95;4.55;;;;;;;15.73;70.25;99637.03;5083540;28;20115;-90
2022/12/10 21:40:05;;;;;;;13.90;4.00;;;;;;;15.74;70.61;99635.16;5064647;28;20148;-87
2022/12/10 21:45:19;;;;;;;16.38;4.63;;;;;;;15.72;70.99;99629.13;5063391;28;20098;-89
2022/12/10 21:48:02;;;;;;;15.57;4.25;;;;;;;15.70;71.12;99620.34;5061373;28;20052;-90
2022/12/10 21:50:30;;;;;;;14.48;3.88;;;;;;;15.68;71.05;99612.44;5077457;28;20051;-91
2022/12/10 21:53:20;;;;;;;13.85;4.30;;;;;;;15.75;71.23;99610.53;5055142;28;20040;-91
2022/12/10 21:55:53;;;;;;;14.07;4.00;;;;;;;15.43;71.33;99560.09;5050686;28;20052;-90
2022/12/10 21:58:19;;;;;;;13.55;3.70;;;;;;;15.59;71.53;99616.44;5085256;28;20047;-87
2022/12/10 22:00:45;;;;;;;16.35;4.03;;;;;;;15.40;71.73;99578.47;5034740;28;20124;-85
2022/12/10 22:03:13;;;;;;;14.50;4.13;;;;;;;15.38;71.84;99575.16;5039616;28;20053;-85
2022/12/10 22:05:44;;;;;;;20.13;4.60;;;;;;;15.61;71.80;99589.97;5039183;28;20055;-87
2022/12/10 22:08:25;;;;;;;17.52;4.55;;;;;;;15.62;71.55;99586.22;5044778;28;20044;-86
2022/12/10 22:10:52;;;;;;;26.58;4.70;;;;;;;15.46;71.54;99559.69;5062561;28;20044;-87
2022/12/10 22:13:18;;;;;;;16.67;4.80;;;;;;;15.54;71.93;99571.06;5063416;28;20425;-88
2022/12/10 22:15:45;;;;;;;18.40;4.78;;;;;;;15.53;71.70;99558.56;5038727;28;20036;-85
2022/12/10 22:18:12;;;;;;;13.98;4.57;;;;;;;15.55;71.69;99563.78;5044077;28;20359;-87
2022/12/10 22:20:42;;;;;;;17.17;4.40;;;;;;;15.56;71.86;99571.66;5031694;28;20082;-87
2022/12/10 22:23:15;;;;;;;12.45;4.60;;;;;;;15.66;71.88;99570.34;5064108;28;20121;-90
2022/12/10 22:25:46;;;;;;;12.68;4.28;;;;;;;15.48;71.75;99542.16;5065802;28;20055;-88
2022/12/10 22:28:13;;;;;;;13.75;4.35;;;;;;;15.34;71.85;99541.44;5051942;28;20071;-87
2022/12/10 22:30:41;;;;;;;18.05;4.68;;;;;;;15.67;71.66;99558.47;5062749;28;20064;-89
2022/12/10 22:33:08;;;;;;;17.73;4.75;;;;;;;15.62;71.45;99553.72;5039410;28;20029;-89
2022/12/10 22:35:40;;;;;;;13.50;4.20;;;;;;;15.77;71.40;99551.53;5047090;28;20071;-88
2022/12/10 22:38:10;;;;;;;18.73;4.32;;;;;;;15.90;70.47;99542.47;5071069;28;20052;-86
2022/12/10 22:40:39;;;;;;;20.45;4.60;;;;;;;15.86;70.41;99543.13;5046289;28;20075;-86
2022/12/10 22:43:06;;;;;;;15.65;4.40;;;;;;;15.56;70.89;99522.91;5028502;28;20041;-88
2022/12/10 22:45:34;;;;;;;15.77;4.50;;;;;;;15.50;70.82;99504.00;5044519;28;20094;-87
2022/12/10 22:48:02;;;;;;;16.42;4.65;;;;;;;15.66;71.01;99527.81;5051371;28;20036;-87
2022/12/10 22:50:31;;;;;;;17.65;5.20;;;;;;;15.59;71.45;99527.91;5054870;28;20401;-89
2022/12/10 22:52:59;;;;;;;15.98;4.70;;;;;;;15.66;71.33;99533.25;5085694;28;20040;-89
2022/12/10 22:55:25;;;;;;;12.35;4.65;;;;;;;15.69;71.22;99548.25;5069183;28;20048;-87
2022/12/10 22:57:51;;;;;;;;;;;;;;;15.72;71.21;99532.41;5073977;28;20033;-88
2022/12/10 23:00:18;;;;;;;15.85;5.20;;;;;;;15.71;71.11;99544.31;5085611;28;19920;-87
2022/12/10 23:02:45;;;;;;;18.73;5.68;;;;;;;15.77;70.92;99535.25;5035768;28;20049;-88
2022/12/10 23:05:12;;;;;;;18.05;6.28;;;;;;;15.74;70.93;99522.16;5064090;28;20047;-90
2022/12/10 23:07:40;;;;;;;20.65;6.15;;;;;;;15.60;70.95;99497.03;5067991;28;20072;-87
2022/12/10 23:10:11;;;;;;;16.83;6.10;;;;;;;15.83;70.66;99520.84;5033976;28;20093;-85
2022/12/10 23:15:23;;;;;;;21.98;6.82;;;;;;;15.80;70.42;99502.31;5078815;28;20515;-85
2022/12/10 23:17:58;;;;;;;17.08;6.28;;;;;;;15.92;70.21;99505.13;5058012;28;20044;-88
2022/12/10 23:20:25;;;;;;;23.15;6.40;;;;;;;15.91;69.82;99489.91;5027271;28;20133;-88
2022/12/10 23:22:51;;;;;;;23.00;6.80;;;;;;;16.02;69.71;99510.03;5025023;28;20048;-87
2022/12/10 23:25:18;;;;;;;20.55;6.15;;;;;;;16.09;69.54;99526.22;5046727;28;20053;-86
2022/12/10 23:27:46;;;;;;;17.65;6.53;;;;;;;16.16;69.00;99514.25;5060960;28;20063;-85
2022/12/10 23:54:50;;;;;;;14.95;6.40;;;;;;;16.34;67.62;99469.19;5066546;28;20059;-86
2022/12/10 23:57:16;;;;;;;;;;;;;;;16.38;67.81;99490.19;5058934;28;20057;-86
2022/12/10 23:59:41;;;;;;;;;;;;;;;16.42;68.25;99488.69;5076752;28;19922;-86
